Time;durP1;ratioP1;P1;durP2;ratioP2;P2;SDS_P1;SDS_P2;PMS_P1;PMS_P2;Temp;Humidity;BMP_temperature;BMP_pressure;BME280_temperature;BME280_humidity;BME280_pressure;Samples;Min_cycle;Max_cycle;Signal;HPM_P1;HPM_P2
2021/07/25 00:00:58;;;;;;;;;;;;;;;22.59;59.21;100026.93;1716088;83;20121;-77
2021/07/25 00:03:24;;;;;;;;;;;;;;;22.52;59.15;100023.04;1709695;82;20155;-78
2021/07/25 00:05:49;;;;;;;;;;;;;;;22.52;59.26;100027.08;1704159;82;20229;-78
2021/07/25 00:08:17;;;;;;;;;;;;;;;22.51;59.29;100025.46;1704399;82;20998;-78
2021/07/25 00:10:50;;;;;;;;;;;;;;;22.46;59.45;100029.38;1701620;82;20235;-81
2021/07/25 00:13:16;;;;;;;;;;;;;;;22.47;59.39;100022.95;1702546;82;20284;-77
2021/07/25 00:15:45;;;;;;;;;;;;;;;22.44;59.23;100020.73;1700461;82;20173;-80
2021/07/25 00:18:10;;;;;;;;;;;;;;;22.37;59.58;100017.34;1711206;82;20130;-78
2021/07/25 00:20:36;;;;;;;;;;;;;;;22.31;60.18;100007.53;1709980;82;21882;-79
2021/07/25 00:23:03;;;;;;;;;;;;;;;22.30;59.78;100021.52;1704942;82;20143;-78
2021/07/25 00:25:29;;;;;;;;;;;;;;;22.28;59.73;100017.39;1705323;82;20217;-77
2021/07/25 00:27:56;;;;;;;;;;;;;;;22.28;59.82;100021.42;1705849;82;20383;-81
2021/07/25 00:30:22;;;;;;;;;;;;;;;22.24;59.93;100019.20;1679328;82;20200;-79
2021/07/25 00:32:49;;;;;;;;;;;;;;;22.21;60.06;100010.80;1699941;82;21090;-78
2021/07/25 00:35:18;;;;;;;;;;;;;;;22.16;60.29;100008.02;1702985;82;20172;-79
2021/07/25 00:37:47;;;;;;;;;;;;;;;22.22;60.22;100007.88;1708180;82;20175;-79
2021/07/25 00:40:15;;;;;;;;;;;;;;;22.16;60.44;100008.82;1700858;82;20148;-79
2021/07/25 00:42:40;;;;;;;;;;;;;;;22.15;60.45;100005.83;1701778;83;20146;-83
2021/07/25 00:45:06;;;;;;;;;;;;;;;22.11;60.70;100002.00;1698042;83;21758;-78
2021/07/25 00:47:33;;;;;;;;;;;;;;;22.08;60.92;99997.09;1701126;82;20474;-79
2021/07/25 00:49:58;;;;;;;;;;;;;;;22.09;61.16;100004.08;1706103;82;20838;-78
2021/07/25 00:52:27;;;;;;;;;;;;;;;22.03;61.05;100006.37;1704574;82;20665;-78
2021/07/25 00:54:53;;;;;;;;;;;;;;;21.99;61.38;99997.97;1701721;82;20170;-77
2021/07/25 00:57:18;;;;;;;;;;;;;;;21.98;61.50;99998.20;1712652;82;21042;-78
2021/07/25 00:59:46;;;;;;;;;;;;;;;21.98;61.43;99999.01;1696356;82;20146;-79
2021/07/25 01:02:11;;;;;;;;;;;;;;;21.98;61.52;100000.35;1714073;83;20171;-78
2021/07/25 01:04:42;;;;;;;;;;;;;;;21.91;61.84;100001.02;1712656;82;20487;-81
2021/07/25 01:07:28;;;;;;;;;;;;;;;21.91;61.63;99998.84;1704712;82;20166;-81
2021/07/25 01:10:04;;;;;;;;;;;;;;;21.86;61.85;99995.00;1708144;82;21027;-76
2021/07/25 01:12:37;;;;;;;;;;;;;;;21.92;61.51;99989.73;1710237;82;20342;-76
2021/07/25 01:15:02;;;;;;;;;;;;;;;21.97;61.71;99999.24;1712752;82;20382;-77
2021/07/25 01:17:33;;;;;;;;;;;;;;;21.94;61.60;99991.64;1702973;82;20465;-76
2021/07/25 01:20:07;;;;;;;;;;;;;;;21.88;61.62;99991.55;1680579;83;20132;-77
2021/07/25 01:22:35;;;;;;;;;;;;;;;21.90;61.70;99986.47;1711901;83;21083;-76
2021/07/25 01:25:01;;;;;;;;;;;;;;;21.83;61.95;99992.78;1699297;83;20236;-80
2021/07/25 01:27:33;;;;;;;;;;;;;;;21.66;62.53;99995.89;1699487;82;20491;-79
2021/07/25 01:29:59;;;;;;;;;;;;;;;21.61;62.81;99994.41;1711001;82;20747;-80
2021/07/25 01:32:26;;;;;;;;;;;;;;;21.53;63.14;99994.76;1710584;82;20976;-77
2021/07/25 01:34:51;;;;;;;;;;;;;;;21.45;63.42;99994.54;1705002;83;22675;-77
2021/07/25 01:37:18;;;;;;;;;;;;;;;21.34;63.86;99998.31;1701273;82;20155;-79
2021/07/25 01:39:44;;;;;;;;;;;;;;;21.30;63.98;99990.44;1715595;83;20208;-78
2021/07/25 01:42:09;;;;;;;;;;;;;;;21.28;64.17;99991.71;1707590;82;20739;-79
2021/07/25 01:44:35;;;;;;;;;;;;;;;21.23;64.36;99991.59;1703212;82;20107;-78
2021/07/25 01:47:01;;;;;;;;;;;;;;;21.15;64.44;99988.18;1693266;82;21101;-79
2021/07/25 01:49:26;;;;;;;;;;;;;;;21.13;64.55;99990.28;1676912;82;20390;-79
2021/07/25 01:51:52;;;;;;;;;;;;;;;21.13;64.63;99991.63;1708852;82;20179;-82
2021/07/25 01:54:18;;;;;;;;;;;;;;;21.08;64.72;99991.48;1708524;82;20690;-78
2021/07/25 01:56:43;;;;;;;;;;;;;;;21.07;64.80;99991.20;1706241;82;20497;-78
2021/07/25 01:59:11;;;;;;;;;;;;;;;21.06;64.82;99992.23;1703891;82;21247;-79
2021/07/25 02:01:36;;;;;;;;;;;;;;;21.01;65.08;99985.94;1703173;82;20179;-78
2021/07/25 02:04:02;;;;;;;;;;;;;;;21.00;65.09;99981.61;1699961;83;20162;-83
2021/07/25 02:06:27;;;;;;;;;;;;;;;20.99;65.04;99978.12;1708160;82;20477;-79
2021/07/25 02:08:53;;;;;;;;;;;;;;;21.01;64.89;99973.33;1706884;82;20146;-82
2021/07/25 02:11:19;;;;;;;;;;;;;;;20.97;65.08;99973.48;1713102;82;21060;-81
2021/07/25 02:13:45;;;;;;;;;;;;;;;21.06;64.81;99982.84;1705424;82;20229;-78
2021/07/25 02:16:11;;;;;;;;;;;;;;;21.00;64.73;99979.73;1705099;82;20170;-80
2021/07/25 02:18:37;;;;;;;;;;;;;;;21.01;64.64;99973.33;1703141;83;20187;-82
2021/07/25 02:21:03;;;;;;;;;;;;;;;21.01;64.59;99974.67;1703852;82;20166;-78
2021/07/25 02:23:28;;;;;;;;;;;;;;;20.96;64.72;99968.64;1712173;82;21660;-78
2021/07/25 02:25:56;;;;;;;;;;;;;;;20.96;64.81;99979.91;1695397;82;20159;-79
2021/07/25 02:28:21;;;;;;;;;;;;;;;20.95;64.91;99976.92;1681663;83;20480;-79
2021/07/25 02:30:50;;;;;;;;;;;;;;;20.94;65.04;99972.09;1708408;82;20165;-80
2021/07/25 02:33:15;;;;;;;;;;;;;;;20.84;65.56;99975.03;1706104;83;20152;-79
2021/07/25 02:35:41;;;;;;;;;;;;;;;20.75;66.04;99968.63;1701453;83;21089;-79
2021/07/25 02:38:07;;;;;;;;;;;;;;;20.71;66.16;99965.28;1699508;82;20518;-78
2021/07/25 02:40:32;;;;;;;;;;;;;;;20.64;66.59;99968.03;1708671;83;20441;-81
2021/07/25 02:42:58;;;;;;;;;;;;;;;20.59;66.79;99968.71;1705284;82;20516;-82
2021/07/25 02:45:23;;;;;;;;;;;;;;;20.60;67.04;99966.84;1716204;82;20181;-83
2021/07/25 02:47:49;;;;;;;;;;;;;;;20.57;67.00;99969.47;1705728;82;21057;-82
2021/07/25 02:50:14;;;;;;;;;;;;;;;20.56;67.23;99963.80;1698675;82;20756;-80
2021/07/25 02:52:40;;;;;;;;;;;;;;;20.53;67.50;99965.59;1709059;82;20153;-78
2021/07/25 02:55:08;;;;;;;;;;;;;;;20.49;67.59;99956.34;1710008;82;20153;-77
2021/07/25 02:57:33;;;;;;;;;;;;;;;20.48;67.69;99965.96;1704159;82;20129;-78
2021/07/25 02:59:59;;;;;;;;;;;;;;;20.47;67.84;99961.13;1699807;82;21094;-78
2021/07/25 03:02:24;;;;;;;;;;;;;;;20.45;67.99;99961.89;1716301;82;20194;-81
2021/07/25 03:04:50;;;;;;;;;;;;;;;20.44;68.14;99958.37;1687202;82;20209;-77
2021/07/25 03:07:15;;;;;;;;;;;;;;;20.42;68.33;99957.78;1706811;82;20703;-78
2021/07/25 03:09:41;;;;;;;;;;;;;;;20.45;68.36;99964.57;1706485;82;20150;-78
2021/07/25 03:12:07;;;;;;;;;;;;;;;20.47;68.33;99958.98;1700331;83;21068;-79
2021/07/25 03:14:32;;;;;;;;;;;;;;;20.50;68.45;99967.91;1711194;82;20177;-78
2021/07/25 03:16:58;;;;;;;;;;;;;;;20.54;68.41;99970.42;1706991;83;20209;-79
2021/07/25 03:19:25;;;;;;;;;;;;;;;20.60;68.35;99970.86;1711304;82;20142;-78
2021/07/25 03:21:51;;;;;;;;;;;;;;;20.64;68.26;99976.08;1705669;82;20156;-78
2021/07/25 03:24:16;;;;;;;;;;;;;;;20.69;68.25;99973.55;1708623;82;21127;-78
2021/07/25 03:26:42;;;;;;;;;;;;;;;20.76;67.95;99971.61;1707723;82;20192;-78
2021/07/25 03:29:07;;;;;;;;;;;;;;;20.78;68.21;99977.56;1710871;82;20196;-77
2021/07/25 03:31:33;;;;;;;;;;;;;;;20.79;68.18;99969.81;1716389;82;20713;-78
2021/07/25 03:33:59;;;;;;;;;;;;;;;20.79;68.34;99971.16;1718162;82;20150;-77
2021/07/25 03:36:26;;;;;;;;;;;;;;;20.80;68.36;99968.78;1710465;82;21108;-78
2021/07/25 03:38:52;;;;;;;;;;;;;;;20.82;68.41;99972.58;1706436;82;20621;-77
2021/07/25 03:41:17;;;;;;;;;;;;;;;20.82;68.26;99971.73;1710309;82;20721;-77
2021/07/25 03:43:43;;;;;;;;;;;;;;;20.84;68.39;99970.47;1706237;82;20213;-78
2021/07/25 03:46:08;;;;;;;;;;;;;;;20.92;68.49;99973.36;1717049;82;20153;-77
2021/07/25 03:48:34;;;;;;;;;;;;;;;20.90;68.51;99972.24;1719201;82;21969;-80
2021/07/25 03:51:00;;;;;;;;;;;;;;;20.98;68.53;99983.18;1665529;83;20302;-77
2021/07/25 03:53:28;;;;;;;;;;;;;;;20.98;68.56;99976.47;1695307;83;21016;-76
2021/07/25 03:55:53;;;;;;;;;;;;;;;20.96;68.72;99975.89;1705377;82;20752;-78
2021/07/25 03:58:19;;;;;;;;;;;;;;;20.95;68.95;99979.61;1708581;83;20381;-80
2021/07/25 04:00:45;;;;;;;;;;;;;;;20.99;68.90;99974.09;1699916;82;21085;-78
2021/07/25 04:03:10;;;;;;;;;;;;;;;21.03;69.09;99976.59;1699660;83;20213;-76
2021/07/25 04:05:36;;;;;;;;;;;;;;;21.08;68.97;99976.70;1717088;82;20508;-77
2021/07/25 04:08:12;;;;;;;;;;;;;;;21.15;68.79;99985.49;1703677;82;20134;-76
2021/07/25 04:10:41;;;;;;;;;;;;;;;21.21;68.71;99989.64;1702719;82;20157;-80
2021/07/25 04:13:07;;;;;;;;;;;;;;;21.28;68.81;99995.73;1713815;82;21881;-76
2021/07/25 04:15:35;;;;;;;;;;;;;;;21.36;68.45;99996.73;1703486;82;20486;-80
2021/07/25 04:18:01;;;;;;;;;;;;;;;21.48;68.02;99996.77;1700929;82;20206;-78
2021/07/25 04:20:26;;;;;;;;;;;;;;;21.53;68.10;99997.44;1696619;82;20307;-76
2021/07/25 04:22:53;;;;;;;;;;;;;;;21.59;68.03;100000.55;1703205;82;20473;-77
2021/07/25 04:25:19;;;;;;;;;;;;;;;21.65;67.80;100003.11;1700388;83;21094;-79
2021/07/25 04:27:44;;;;;;;;;;;;;;;21.74;67.42;100002.25;1711863;82;20149;-77
2021/07/25 04:30:11;;;;;;;;;;;;;;;21.82;67.61;100003.77;1707171;82;20212;-80
2021/07/25 04:32:37;;;;;;;;;;;;;;;21.87;67.68;100008.72;1676700;83;20193;-77
2021/07/25 04:35:03;;;;;;;;;;;;;;;21.94;67.35;99999.71;1693184;83;20845;-77
2021/07/25 04:37:30;;;;;;;;;;;;;;;22.03;67.21;99999.65;1702195;82;21078;-77
2021/07/25 04:39:56;;;;;;;;;;;;;;;22.07;67.12;100002.70;1712616;82;20129;-77
2021/07/25 04:42:25;;;;;;;;;;;;;;;22.10;67.13;100004.39;1707694;83;20246;-77
2021/07/25 04:44:57;;;;;;;;;;;;;;;22.18;66.93;99996.48;1705756;82;20144;-77
2021/07/25 04:47:26;;;;;;;;;;;;;;;22.27;66.56;100008.51;1685090;82;21079;-77
2021/07/25 04:49:58;;;;;;;;;;;;;;;22.35;66.44;100003.32;1707733;82;21285;-77
2021/07/25 04:52:24;;;;;;;;;;;;;;;22.38;66.45;100006.34;1697529;82;20230;-77
2021/07/25 04:54:49;;;;;;;;;;;;;;;22.47;66.18;100004.11;1706750;82;20138;-78
2021/07/25 04:57:15;;;;;;;;;;;;;;;22.57;65.87;100008.87;1709978;82;20455;-76
2021/07/25 04:59:47;;;;;;;;;;;;;;;22.64;65.58;100008.72;1707404;82;20419;-76
2021/07/25 05:02:17;;;;;;;;;;;;;;;22.61;65.42;100017.27;1702417;82;21100;-80
2021/07/25 05:04:43;;;;;;;;;;;;;;;22.75;65.32;100009.23;1705240;82;20216;-77
2021/07/25 05:07:11;;;;;;;;;;;;;;;22.77;65.42;100008.45;1664917;83;20123;-77
2021/07/25 05:09:37;;;;;;;;;;;;;;;22.77;65.73;100008.45;1706933;82;20203;-76
2021/07/25 05:12:12;;;;;;;;;;;;;;;22.79;65.63;100014.40;1711675;83;20228;-76
2021/07/25 05:14:56;;;;;;;;;;;;;;;22.86;65.75;100012.39;1702000;82;21270;-76
2021/07/25 05:17:24;;;;;;;;;;;;;;;22.92;66.04;100013.31;1700126;83;20450;-78
2021/07/25 05:20:06;;;;;;;;;;;;;;;23.03;65.66;100019.70;1709918;82;20206;-81
2021/07/25 05:22:54;;;;;;;;;;;;;;;23.08;65.35;100019.78;1695238;82;20155;-76
2021/07/25 05:25:21;;;;;;;;;;;;;;;23.18;65.43;100021.36;1697185;82;20214;-76
2021/07/25 05:27:48;;;;;;;;;;;;;;;23.25;65.21;100019.30;1707315;82;21122;-78
2021/07/25 05:30:15;;;;;;;;;;;;;;;23.32;64.94;100015.63;1704293;82;20566;-77
2021/07/25 05:32:40;;;;;;;;;;;;;;;23.39;64.74;100017.66;1705580;83;20162;-77
2021/07/25 05:35:09;;;;;;;;;;;;;;;23.45;64.84;100016.67;1716826;82;20713;-76
2021/07/25 05:37:36;;;;;;;;;;;;;;;23.49;64.68;100015.10;1702475;82;20138;-79
2021/07/25 05:40:04;;;;;;;;;;;;;;;23.58;64.04;100012.83;1713484;82;20991;-77
2021/07/25 05:42:30;;;;;;;;;;;;;;;23.62;63.48;100013.44;1708881;82;20876;-76
2021/07/25 05:44:56;;;;;;;;;;;;;;;23.71;63.60;100011.67;1702002;83;20194;-79
2021/07/25 05:47:21;;;;;;;;;;;;;;;23.76;63.53;100014.46;1707933;82;20125;-77
2021/07/25 05:49:47;;;;;;;;;;;;;;;23.84;63.30;100014.06;1718148;82;20114;-78
2021/07/25 05:52:13;;;;;;;;;;;;;;;23.93;63.10;100016.63;1714213;82;21072;-77
2021/07/25 05:54:38;;;;;;;;;;;;;;;24.01;62.93;100018.89;1708717;82;20136;-77
2021/07/25 05:57:04;;;;;;;;;;;;;;;24.03;62.49;100013.78;1699821;82;20854;-76
2021/07/25 05:59:29;;;;;;;;;;;;;;;24.05;62.19;100019.73;1706931;82;20120;-77
2021/07/25 06:01:55;;;;;;;;;;;;;;;24.13;62.18;100017.44;1708906;82;20212;-79
2021/07/25 06:04:21;;;;;;;;;;;;;;;24.23;61.91;100011.35;1704767;82;21072;-79
2021/07/25 06:06:46;;;;;;;;;;;;;;;24.18;62.11;100011.30;1704355;82;20497;-81
2021/07/25 06:09:12;;;;;;;;;;;;;;;24.23;62.05;100015.40;1695040;82;20155;-78
2021/07/25 06:11:38;;;;;;;;;;;;;;;24.35;61.79;100016.64;1713275;82;20165;-76
2021/07/25 06:14:04;;;;;;;;;;;;;;;24.44;61.48;100015.65;1702657;82;20202;-76
2021/07/25 06:16:30;;;;;;;;;;;;;;;24.50;61.40;100025.44;1711784;82;20967;-78
2021/07/25 06:18:55;;;;;;;;;;;;;;;24.55;61.45;100025.52;1713729;82;20139;-76
2021/07/25 06:21:23;;;;;;;;;;;;;;;24.61;61.45;100027.25;1708382;82;20194;-76
2021/07/25 06:23:49;;;;;;;;;;;;;;;24.71;61.30;100020.59;1713404;82;20168;-76
2021/07/25 06:26:16;;;;;;;;;;;;;;;24.73;60.82;100013.08;1700633;82;20345;-77
2021/07/25 06:28:42;;;;;;;;;;;;;;;24.75;60.74;100016.03;1700031;82;21032;-79
2021/07/25 06:31:09;;;;;;;;;;;;;;;24.86;60.60;100016.41;1711567;82;20210;-76
2021/07/25 06:33:36;;;;;;;;;;;;;;;24.88;60.23;100017.00;1714877;83;20176;-77
2021/07/25 06:36:02;;;;;;;;;;;;;;;24.88;60.02;100017.00;1715856;83;20718;-77
2021/07/25 06:38:27;;;;;;;;;;;;;;;24.96;60.07;100017.88;1712733;82;20122;-76
2021/07/25 06:40:55;;;;;;;;;;;;;;;25.03;60.04;100019.86;1715105;82;20847;-76
2021/07/25 06:43:21;;;;;;;;;;;;;;;25.03;60.31;100014.45;1688438;82;20131;-77
2021/07/25 06:45:47;;;;;;;;;;;;;;;25.08;59.60;100017.19;1707383;82;20150;-77
2021/07/25 06:48:21;;;;;;;;;;;;;;;25.07;59.64;100018.80;1703536;82;20938;-78
2021/07/25 06:50:48;;;;;;;;;;;;;;;25.04;59.70;100017.41;1706056;82;20184;-81
2021/07/25 06:53:14;;;;;;;;;;;;;;;25.07;59.56;100011.50;1710059;82;21849;-76
2021/07/25 06:55:40;;;;;;;;;;;;;;;25.06;59.94;100012.59;1706101;82;20295;-77
2021/07/25 06:58:05;;;;;;;;;;;;;;;25.05;60.10;100017.70;1706324;83;20201;-76
2021/07/25 07:00:31;;;;;;;;;;;;;;;25.12;59.75;100013.98;1715732;82;20652;-79
2021/07/25 07:02:57;;;;;;;;;;;;;;;25.13;59.84;100015.62;1711553;82;20307;-77
2021/07/25 07:05:24;;;;;;;;;;;;;;;25.19;59.92;100011.89;1716361;82;21177;-75
2021/07/25 07:07:51;;;;;;;;;;;;;;;25.25;59.87;100017.63;1708383;82;20464;-76
2021/07/25 07:10:18;;;;;;;;;;;;;;;25.37;59.37;100014.25;1707505;82;20163;-78
2021/07/25 07:12:44;;;;;;;;;;;;;;;25.43;59.47;100009.16;1683032;83;20135;-75
2021/07/25 07:15:10;;;;;;;;;;;;;;;25.52;59.04;100015.44;1691865;82;20155;-80
2021/07/25 07:17:38;;;;;;;;;;;;;;;25.62;58.32;100012.78;1705333;82;21873;-75
2021/07/25 07:20:05;;;;;;;;;;;;;;;25.63;58.08;100011.72;1711272;82;20091;-76
2021/07/25 07:22:30;;;;;;;;;;;;;;;25.69;58.26;100013.38;1707265;82;20149;-76
2021/07/25 07:24:56;;;;;;;;;;;;;;;25.78;58.61;100017.23;1713931;82;20742;-79
2021/07/25 07:27:23;;;;;;;;;;;;;;;25.85;58.75;100017.00;1707536;82;20118;-76
2021/07/25 07:29:49;;;;;;;;;;;;;;;25.94;58.53;100014.63;1702747;82;21147;-77
2021/07/25 07:32:14;;;;;;;;;;;;;;;26.02;58.65;100016.86;1703356;82;20129;-80
2021/07/25 07:34:40;;;;;;;;;;;;;;;26.05;58.37;100016.34;1704581;82;20150;-77
2021/07/25 07:37:05;;;;;;;;;;;;;;;26.05;57.67;100020.94;1703011;82;20195;-77
2021/07/25 07:39:31;;;;;;;;;;;;;;;26.08;57.24;100019.87;1709026;82;20150;-78
2021/07/25 07:41:57;;;;;;;;;;;;;;;26.13;57.24;100026.69;1712299;82;21159;-79
2021/07/25 07:44:23;;;;;;;;;;;;;;;26.17;57.07;100023.45;1700411;82;20192;-77
2021/07/25 07:46:49;;;;;;;;;;;;;;;26.27;57.16;100027.55;1705095;82;20195;-75
2021/07/25 07:49:14;;;;;;;;;;;;;;;26.31;56.73;100017.83;1708480;82;20697;-77
2021/07/25 07:51:40;;;;;;;;;;;;;;;26.37;56.63;100027.59;1705685;82;20901;-78
2021/07/25 07:54:06;;;;;;;;;;;;;;;26.44;56.55;100015.97;1702081;82;21014;-75
2021/07/25 07:56:35;;;;;;;;;;;;;;;26.48;56.75;100017.08;1705341;82;20772;-81
2021/07/25 07:58:59;;;;;;;;;;;;;;;26.56;56.34;100019.01;1714008;82;20194;-77
2021/07/25 08:01:25;;;;;;;;;;;;;;;26.65;56.40;100020.95;1712390;83;20428;-76
2021/07/25 08:03:51;;;;;;;;;;;;;;;26.71;56.13;100010.96;1705782;82;20156;-77
2021/07/25 08:06:16;;;;;;;;;;;;;;;26.73;56.25;100015.56;1709551;83;21057;-80
2021/07/25 08:08:42;;;;;;;;;;;;;;;26.79;56.32;100019.91;1708755;82;20280;-78
2021/07/25 08:11:07;;;;;;;;;;;;;;;26.92;56.21;100016.41;1706671;82;20148;-78
2021/07/25 08:13:33;;;;;;;;;;;;;;;27.01;55.84;100019.67;1709482;82;20162;-79
2021/07/25 08:15:58;;;;;;;;;;;;;;;27.11;55.40;100013.44;1712749;82;20149;-79
2021/07/25 08:18:24;;;;;;;;;;;;;;;27.23;54.99;100019.97;1709904;82;21246;-84
2021/07/25 08:20:49;;;;;;;;;;;;;;;27.27;54.61;100013.45;1715361;82;20578;-78
2021/07/25 08:23:15;;;;;;;;;;;;;;;27.30;55.34;100017.81;1710180;82;20195;-79
2021/07/25 08:25:41;;;;;;;;;;;;;;;27.33;54.21;100017.83;1705339;82;20167;-82
2021/07/25 08:28:06;;;;;;;;;;;;;;;27.37;54.33;100018.92;1711806;82;20144;-79
2021/07/25 08:30:32;;;;;;;;;;;;;;;27.45;54.23;100022.44;1695116;82;21886;-78
2021/07/25 08:32:58;;;;;;;;;;;;;;;27.56;54.36;100022.72;1708322;82;20606;-76
2021/07/25 08:35:24;;;;;;;;;;;;;;;27.61;54.57;100010.22;1713048;82;20195;-77
2021/07/25 08:37:50;;;;;;;;;;;;;;;27.64;53.97;100015.09;1705126;82;20479;-77
2021/07/25 08:40:16;;;;;;;;;;;;;;;27.74;53.46;100017.81;1693764;83;20359;-77
2021/07/25 08:43:04;;;;;;;;;;;;;;;27.85;53.09;100018.61;1701200;82;21103;-77
2021/07/25 08:45:31;;;;;;;;;;;;;;;27.92;53.49;100013.69;1714487;82;20152;-81
2021/07/25 08:48:11;;;;;;;;;;;;;;;28.03;52.99;100009.91;1697972;82;20232;-78
2021/07/25 08:50:44;;;;;;;;;;;;;;;28.08;52.82;100009.08;1712017;82;20634;-82
2021/07/25 08:53:16;;;;;;;;;;;;;;;28.13;52.48;100019.91;1700648;82;20182;-77
2021/07/25 08:55:42;;;;;;;;;;;;;;;28.19;52.12;100013.37;1716730;83;20847;-79
2021/07/25 08:58:07;;;;;;;;;;;;;;;28.27;51.83;100020.94;1712281;82;20167;-79
2021/07/25 09:00:33;;;;;;;;;;;;;;;28.37;51.64;100019.27;1708479;82;20227;-77
2021/07/25 09:02:59;;;;;;;;;;;;;;;28.48;51.78;100009.45;1701104;82;20146;-76
2021/07/25 09:05:24;;;;;;;;;;;;;;;28.50;51.62;100013.25;1699487;82;20251;-77
2021/07/25 09:07:50;;;;;;;;;;;;;;;28.51;51.29;100018.96;1710167;82;21092;-78
2021/07/25 09:10:18;;;;;;;;;;;;;;;28.62;51.45;100013.77;1710264;82;20329;-79
2021/07/25 09:12:44;;;;;;;;;;;;;;;28.69;51.23;100012.64;1710040;82;20454;-79
2021/07/25 09:15:11;;;;;;;;;;;;;;;28.94;50.60;100008.95;1712726;82;20218;-83
2021/07/25 09:17:37;;;;;;;;;;;;;;;29.01;50.23;100004.81;1712801;82;20254;-81
2021/07/25 09:20:31;;;;;;;;;;;;;;;29.01;49.86;100004.81;1704034;82;21080;-76
2021/07/25 09:22:59;;;;;;;;;;;;;;;29.07;48.86;100006.96;1711999;82;20167;-78
2021/07/25 09:25:28;;;;;;;;;;;;;;;29.05;48.10;100012.41;1698872;82;20175;-78
2021/07/25 09:28:00;;;;;;;;;;;;;;;29.09;48.67;100008.04;1697690;82;20104;-77
2021/07/25 09:30:27;;;;;;;;;;;;;;;29.21;48.61;99999.00;1701654;82;20214;-78
2021/07/25 09:32:53;;;;;;;;;;;;;;;29.13;48.26;100005.00;1706375;82;21794;-76
2021/07/25 09:35:28;;;;;;;;;;;;;;;29.16;48.59;100004.43;1710673;82;20193;-76
2021/07/25 09:37:55;;;;;;;;;;;;;;;29.20;47.98;100004.16;1699075;82;20156;-77
2021/07/25 09:40:29;;;;;;;;;;;;;;;29.18;48.40;100015.86;1697444;82;20178;-78
2021/07/25 09:43:15;;;;;;;;;;;;;;;29.29;48.45;100010.62;1708526;82;20174;-80
2021/07/25 09:45:54;;;;;;;;;;;;;;;29.32;47.79;100007.33;1710833;82;21234;-77
2021/07/25 09:48:22;;;;;;;;;;;;;;;29.45;47.14;100015.94;1713415;82;20133;-80
2021/07/25 09:50:51;;;;;;;;;;;;;;;29.59;47.19;100010.08;1712706;82;20159;-77
2021/07/25 09:53:16;;;;;;;;;;;;;;;29.71;47.02;100011.86;1685760;82;20178;-75
2021/07/25 09:55:42;;;;;;;;;;;;;;;29.69;46.22;100005.91;1706981;82;20195;-75
2021/07/25 09:58:07;;;;;;;;;;;;;;;29.76;46.42;100008.84;1683084;82;21099;-78
2021/07/25 10:00:43;;;;;;;;;;;;;;;29.86;46.46;100007.38;1697009;83;20199;-80
2021/07/25 10:03:22;;;;;;;;;;;;;;;29.90;46.32;100005.72;1706501;82;20268;-74
2021/07/25 10:05:48;;;;;;;;;;;;;;;29.99;46.71;100005.34;1694997;83;20238;-76
2021/07/25 10:08:18;;;;;;;;;;;;;;;30.03;46.59;100012.38;1702687;82;20165;-80
2021/07/25 10:10:48;;;;;;;;;;;;;;;30.09;46.01;100004.41;1694787;83;21093;-77
2021/07/25 10:13:20;;;;;;;;;;;;;;;30.22;46.05;100013.78;1698504;82;20216;-77
2021/07/25 10:15:57;;;;;;;;;;;;;;;30.23;45.61;100003.16;1703548;83;20217;-76
2021/07/25 10:18:24;;;;;;;;;;;;;;;30.30;45.47;100002.79;1713744;82;20829;-80
2021/07/25 10:20:50;;;;;;;;;;;;;;;30.32;46.01;100004.13;1708356;82;20453;-82
2021/07/25 10:23:17;;;;;;;;;;;;;;;30.33;44.54;100007.13;1673179;82;21825;-77
2021/07/25 10:25:45;;;;;;;;;;;;;;;30.41;45.23;100006.49;1706744;82;20783;-76
2021/07/25 10:28:11;;;;;;;;;;;;;;;30.52;44.64;100007.73;1695068;82;20250;-82
2021/07/25 10:30:37;;;;;;;;;;;;;;;30.57;44.21;99996.75;1698788;82;20173;-78
2021/07/25 10:33:03;;;;;;;;;;;;;;;30.63;44.15;99994.22;1680065;83;20224;-78
2021/07/25 10:35:30;;;;;;;;;;;;;;;30.69;44.26;99999.85;1709464;83;40238;-78
2021/07/25 10:37:55;;;;;;;;;;;;;;;30.77;44.22;99992.92;1698907;82;20270;-78
2021/07/25 10:40:21;;;;;;;;;;;;;;;30.75;43.78;99990.49;1694913;83;20145;-77
2021/07/25 10:42:50;;;;;;;;;;;;;;;30.85;43.91;99991.45;1679357;82;20176;-80
2021/07/25 10:45:16;;;;;;;;;;;;;;;30.88;43.36;99994.95;1703699;82;20183;-76
2021/07/25 10:47:44;;;;;;;;;;;;;;;31.00;43.13;99985.80;1701192;82;21226;-78
2021/07/25 10:50:11;;;;;;;;;;;;;;;30.99;42.79;99984.16;1703930;82;20129;-76
2021/07/25 10:52:54;;;;;;;;;;;;;;;31.07;42.41;99986.20;1698431;82;20232;-77
2021/07/25 10:55:41;;;;;;;;;;;;;;;31.04;41.09;99990.89;1707078;83;21061;-77
2021/07/25 10:58:09;;;;;;;;;;;;;;;31.12;41.57;99991.59;1706961;82;20135;-78
2021/07/25 11:00:42;;;;;;;;;;;;;;;31.17;41.58;99995.33;1707304;83;21055;-78
2021/07/25 11:03:08;;;;;;;;;;;;;;;31.25;41.63;100000.13;1701677;82;20193;-82
2021/07/25 11:05:33;;;;;;;;;;;;;;;31.23;41.90;99992.77;1712079;82;20220;-79
2021/07/25 11:07:59;;;;;;;;;;;;;;;31.26;41.21;99990.81;1708442;82;20181;-77
2021/07/25 11:10:35;;;;;;;;;;;;;;;31.28;40.92;99989.98;1710123;82;20122;-81
2021/07/25 11:13:04;;;;;;;;;;;;;;;31.38;40.78;99988.42;1695408;82;20734;-78
2021/07/25 11:15:32;;;;;;;;;;;;;;;31.40;40.69;99988.12;1695560;82;20941;-79
2021/07/25 11:18:08;;;;;;;;;;;;;;;31.48;41.05;99992.34;1701733;82;20128;-82
2021/07/25 11:20:52;;;;;;;;;;;;;;;31.54;41.30;99990.91;1707760;82;20214;-79
2021/07/25 11:23:24;;;;;;;;;;;;;;;31.61;41.70;99986.67;1712427;83;20205;-77
2021/07/25 11:25:51;;;;;;;;;;;;;;;31.68;41.83;99986.27;1709509;82;21121;-79
2021/07/25 11:28:42;;;;;;;;;;;;;;;31.77;41.55;99987.19;1694140;82;20095;-77
2021/07/25 11:31:11;;;;;;;;;;;;;;;31.81;41.40;99988.78;1704936;82;20468;-80
2021/07/25 11:33:44;;;;;;;;;;;;;;;31.78;40.84;99986.09;1697576;82;21406;-77
2021/07/25 11:36:20;;;;;;;;;;;;;;;31.89;40.66;99981.23;1713513;82;20163;-81
2021/07/25 11:38:51;;;;;;;;;;;;;;;31.93;40.62;99979.53;1707038;82;21176;-79
2021/07/25 11:41:21;;;;;;;;;;;;;;;31.99;41.16;99984.31;1702762;82;20201;-81
2021/07/25 11:43:55;;;;;;;;;;;;;;;32.08;40.61;99978.39;1713778;82;20122;-79
2021/07/25 11:46:30;;;;;;;;;;;;;;;32.11;40.45;99977.81;1710519;82;20187;-79
2021/07/25 11:49:08;;;;;;;;;;;;;;;32.17;40.62;99976.59;1698835;82;20453;-80
2021/07/25 11:51:34;;;;;;;;;;;;;;;32.17;40.04;99971.70;1700330;82;22120;-81
2021/07/25 11:54:00;;;;;;;;;;;;;;;32.28;40.27;99980.48;1706786;82;20523;-81
2021/07/25 11:56:26;;;;;;;;;;;;;;;32.35;40.37;99976.80;1709800;82;20134;-78
2021/07/25 11:58:59;;;;;;;;;;;;;;;32.42;40.08;99985.36;1708206;82;20161;-82
2021/07/25 12:01:25;;;;;;;;;;;;;;;32.34;39.30;99986.09;1709528;82;20192;-78
2021/07/25 12:03:50;;;;;;;;;;;;;;;32.43;39.90;99975.23;1684170;82;21082;-79
2021/07/25 12:06:17;;;;;;;;;;;;;;;32.54;39.93;99977.44;1706428;82;20137;-79
2021/07/25 12:09:03;;;;;;;;;;;;;;;32.64;40.00;99971.48;1709400;82;20190;-82
2021/07/25 12:11:29;;;;;;;;;;;;;;;32.66;39.37;99966.55;1703235;82;20806;-80
2021/07/25 12:13:55;;;;;;;;;;;;;;;32.73;39.09;99963.63;1704914;82;20160;-81
2021/07/25 12:16:20;;;;;;;;;;;;;;;32.83;38.34;99957.13;1703382;82;21491;-80
2021/07/25 12:18:46;;;;;;;;;;;;;;;32.85;38.03;99958.98;1698292;82;20162;-85
2021/07/25 12:21:32;;;;;;;;;;;;;;;32.86;38.09;99956.51;1698660;82;20239;-79
2021/07/25 12:23:59;;;;;;;;;;;;;;;32.95;37.38;99955.75;1707372;82;20098;-81
2021/07/25 12:26:41;;;;;;;;;;;;;;;33.12;37.04;99961.91;1697378;82;20987;-84
2021/07/25 12:29:44;;;;;;;;;;;;;;;33.19;37.45;99959.00;1699451;83;21119;-78
2021/07/25 12:32:26;;;;;;;;;;;;;;;33.27;37.22;99955.50;1701806;82;20151;-79
2021/07/25 12:34:55;;;;;;;;;;;;;;;33.31;36.52;99952.93;1702470;82;20233;-85
2021/07/25 12:37:29;;;;;;;;;;;;;;;33.43;36.46;99955.09;1714858;82;20214;-81
2021/07/25 12:40:08;;;;;;;;;;;;;;;33.52;36.53;99953.20;1716248;82;20575;-84
2021/07/25 12:42:42;;;;;;;;;;;;;;;33.62;35.87;99952.94;1707503;82;21089;-77
2021/07/25 12:45:30;;;;;;;;;;;;;;;33.75;35.79;99950.44;1701483;82;20150;-82